Tanglewood, Louisiana
Current Conditions -  °F | °C
As of 3:53 PM on Monday 20 Oct 2014 (Local Time) from KAEX Reporting Station
Clear Clear  
Wind Chill: 78°   Ceiling: Unl
Heat Index: 79°   Visibility: 10mi
Dew Point: 51°   Wind: 7mph
Humidity: 39%   Direction: 340°NNW
Pressure: 30"   Gusts: NA
Location:  31.2655°N, 92.4705°W
Report Text: KAEX 202053Z 34006KT 10SM CLR 26/11 A3000 RMK AO2 SLP163 T02560106 56015
Loading
Personal Weather Stations






























Interactive Weather Map
Tropical Storm Tracking
New forecast layout! Learn more

10-Day Weather Forecast

Advertisements
Track Severe Weather on mobile